Time;durP1;ratioP1;P1;durP2;ratioP2;P2;SDS_P1;SDS_P2;PMS_P1;PMS_P2;Temp;Humidity;BMP_temperature;BMP_pressure;BME280_temperature;BME280_humidity;BME280_pressure;Samples;Min_cycle;Max_cycle;Signal;HPM_P1;HPM_P2
2023/03/20 00:02:18;;;;;;;0.00;0.00;;;9.30;99.90;;;;;;4976219;28;20654;-60
2023/03/20 00:04:44;;;;;;;0.00;0.00;;;9.30;99.90;;;;;;4982048;28;20211;-60
2023/03/20 00:07:11;;;;;;;0.00;0.00;;;9.30;99.90;;;;;;4983738;28;20241;-60
2023/03/20 00:09:37;;;;;;;0.00;0.00;;;9.40;99.90;;;;;;4966768;28;20515;-60
2023/03/20 00:12:04;;;;;;;0.00;0.00;;;9.40;99.90;;;;;;4972369;28;20191;-60
2023/03/20 00:14:30;;;;;;;0.00;0.00;;;9.40;99.90;;;;;;4972518;28;20250;-60
2023/03/20 00:16:55;;;;;;;0.00;0.00;;;9.40;99.90;;;;;;4972630;28;20187;-60
2023/03/20 00:19:30;;;;;;;0.00;0.00;;;9.40;99.90;;;;;;4982188;28;20227;-60
2023/03/20 00:21:56;;;;;;;0.00;0.00;;;9.40;99.90;;;;;;4971554;28;20639;-60
2023/03/20 00:24:22;;;;;;;0.00;0.00;;;9.40;99.90;;;;;;4971772;28;20235;-60
2023/03/20 00:26:49;;;;;;;0.00;0.00;;;9.50;99.90;;;;;;4972317;28;20204;-61
2023/03/20 00:29:26;;;;;;;0.00;0.00;;;9.50;99.90;;;;;;4972136;28;20168;-60
2023/03/20 00:31:53;;;;;;;0.00;0.00;;;9.40;99.90;;;;;;4972161;28;20188;-60
2023/03/20 00:34:22;;;;;;;0.00;0.00;;;9.40;99.90;;;;;;4971697;28;20169;-60
2023/03/20 00:36:48;;;;;;;0.00;0.00;;;9.40;99.90;;;;;;4971666;28;20199;-60
2023/03/20 00:39:13;;;;;;;0.00;0.00;;;9.40;99.90;;;;;;4972134;28;20219;-60
2023/03/20 00:41:48;;;;;;;0.00;0.00;;;9.40;99.90;;;;;;4971703;28;20195;-61
2023/03/20 00:44:37;;;;;;;0.00;0.00;;;9.40;99.90;;;;;;4984282;28;20661;-60
2023/03/20 00:47:20;;;;;;;0.05;0.05;;;9.40;99.90;;;;;;4953153;28;20588;-60
2023/03/20 00:49:48;;;;;;;0.00;0.00;;;9.40;99.90;;;;;;4964915;28;20180;-60
2023/03/20 00:52:16;;;;;;;0.00;0.00;;;9.50;99.90;;;;;;4971632;28;20224;-60
2023/03/20 00:54:41;;;;;;;0.00;0.00;;;9.40;99.90;;;;;;4974198;28;20275;-59
2023/03/20 00:57:13;;;;;;;0.00;0.00;;;9.50;99.90;;;;;;4981381;28;20260;-58
2023/03/20 01:00:06;;;;;;;0.00;0.00;;;9.50;99.90;;;;;;4971976;28;20222;-58
2023/03/20 01:02:32;;;;;;;0.00;0.00;;;9.50;99.90;;;;;;4971483;28;20531;-60
2023/03/20 01:04:58;;;;;;;0.03;0.03;;;9.50;99.90;;;;;;4970987;28;20587;-59
2023/03/20 01:07:24;;;;;;;0.00;0.00;;;9.50;99.90;;;;;;4965608;28;20192;-59
2023/03/20 01:09:49;;;;;;;0.00;0.00;;;9.50;99.90;;;;;;4974864;28;20180;-59
2023/03/20 01:12:16;;;;;;;0.00;0.00;;;9.50;99.90;;;;;;4971365;28;20543;-59
2023/03/20 01:14:42;;;;;;;0.00;0.00;;;9.40;99.90;;;;;;4971761;28;20172;-59
2023/03/20 01:17:18;;;;;;;0.00;0.00;;;9.40;99.90;;;;;;4971145;28;20194;-59
2023/03/20 01:19:44;;;;;;;0.00;0.00;;;9.40;99.90;;;;;;4975319;28;20222;-59
2023/03/20 01:22:10;;;;;;;0.00;0.00;;;9.40;99.90;;;;;;4982964;28;20184;-59
2023/03/20 01:24:35;;;;;;;0.00;0.00;;;9.40;99.90;;;;;;4975429;28;20284;-59
2023/03/20 01:27:03;;;;;;;0.00;0.00;;;9.30;99.90;;;;;;4975535;28;20234;-59
2023/03/20 01:29:29;;;;;;;0.00;0.00;;;9.30;99.90;;;;;;4975477;28;20188;-59
2023/03/20 01:31:55;;;;;;;0.00;0.00;;;9.40;99.90;;;;;;4975563;28;20177;-59
2023/03/20 01:34:21;;;;;;;0.00;0.00;;;9.30;99.90;;;;;;4975452;28;20180;-60
2023/03/20 01:36:57;;;;;;;0.00;0.00;;;9.30;99.90;;;;;;4974999;28;20180;-60
2023/03/20 01:39:32;;;;;;;0.00;0.00;;;9.30;99.90;;;;;;4975476;28;20212;-60
2023/03/20 01:41:59;;;;;;;0.00;0.00;;;9.30;99.90;;;;;;4975197;28;20548;-60
2023/03/20 01:44:29;;;;;;;0.10;0.10;;;9.30;99.90;;;;;;4988795;28;20270;-60
2023/03/20 01:46:55;;;;;;;0.00;0.00;;;9.30;99.90;;;;;;4975841;28;20199;-60
2023/03/20 01:49:20;;;;;;;0.00;0.00;;;9.20;99.90;;;;;;4974923;28;20191;-60
2023/03/20 01:51:47;;;;;;;0.00;0.00;;;9.20;99.90;;;;;;4974735;28;20184;-60
2023/03/20 01:54:30;;;;;;;0.00;0.00;;;9.20;99.90;;;;;;4975114;28;20188;-61
2023/03/20 01:56:58;;;;;;;0.00;0.00;;;9.20;99.90;;;;;;4981951;28;20179;-58
2023/03/20 01:59:31;;;;;;;0.00;0.00;;;9.10;99.90;;;;;;4974700;28;20709;-59
2023/03/20 02:01:57;;;;;;;0.10;0.10;;;9.10;99.90;;;;;;4974967;28;20188;-59
2023/03/20 02:04:28;;;;;;;0.00;0.00;;;9.10;99.90;;;;;;4974583;28;20558;-60
2023/03/20 02:06:54;;;;;;;0.00;0.00;;;9.10;99.90;;;;;;4974719;28;20239;-60
2023/03/20 02:09:20;;;;;;;0.00;0.00;;;9.10;99.90;;;;;;4969375;28;20272;-60
2023/03/20 02:11:46;;;;;;;0.00;0.00;;;9.10;99.90;;;;;;4970748;28;20219;-60
2023/03/20 02:14:12;;;;;;;0.00;0.00;;;9.10;99.90;;;;;;4974765;28;20718;-60
2023/03/20 02:16:38;;;;;;;0.00;0.00;;;9.10;99.90;;;;;;4974776;28;20180;-60
2023/03/20 02:19:06;;;;;;;0.00;0.00;;;9.10;99.90;;;;;;4974261;28;20232;-60
2023/03/20 02:21:50;;;;;;;0.00;0.00;;;9.10;99.90;;;;;;4967674;28;20648;-60
2023/03/20 02:25:02;;;;;;;0.00;0.00;;;9.10;99.90;;;;;;4972723;28;20191;-59
2023/03/20 02:28:05;;;;;;;0.00;0.00;;;9.10;99.90;;;;;;4973451;28;20183;-60
2023/03/20 02:31:11;;;;;;;0.00;0.00;;;9.10;99.90;;;;;;4972553;28;20214;-60
2023/03/20 02:33:59;;;;;;;0.00;0.00;;;9.10;99.90;;;;;;4992632;28;20197;-61
2023/03/20 02:36:45;;;;;;;0.00;0.00;;;9.10;99.90;;;;;;4971649;28;20577;-60
2023/03/20 02:39:28;;;;;;;0.00;0.00;;;9.10;99.90;;;;;;4973154;28;20248;-60
2023/03/20 02:42:24;;;;;;;0.00;0.00;;;9.10;99.90;;;;;;4963547;28;20181;-60
2023/03/20 02:45:10;;;;;;;0.00;0.00;;;9.10;99.90;;;;;;4977698;28;20621;-61
2023/03/20 02:47:54;;;;;;;0.00;0.00;;;9.10;99.90;;;;;;4973712;28;20231;-60
2023/03/20 02:51:02;;;;;;;0.00;0.00;;;9.10;99.90;;;;;;4974033;28;20180;-58
2023/03/20 02:53:53;;;;;;;0.00;0.00;;;9.10;99.90;;;;;;4971908;28;20266;-58
2023/03/20 02:56:22;;;;;;;0.00;0.00;;;9.10;99.90;;;;;;4973707;28;20176;-60
2023/03/20 02:58:52;;;;;;;0.00;0.00;;;9.10;99.90;;;;;;4973231;28;20200;-61
2023/03/20 03:01:24;;;;;;;0.00;0.00;;;9.00;99.90;;;;;;4973546;28;20191;-60
2023/03/20 03:03:59;;;;;;;0.08;0.08;;;9.00;99.90;;;;;;4973828;28;20307;-60
2023/03/20 03:06:30;;;;;;;0.00;0.00;;;9.00;99.90;;;;;;4974688;28;20631;-60
2023/03/20 03:09:10;;;;;;;0.13;0.13;;;9.00;99.90;;;;;;4979207;28;20191;-60
2023/03/20 03:11:48;;;;;;;0.00;0.00;;;9.00;99.90;;;;;;4973075;28;20175;-60
2023/03/20 03:14:22;;;;;;;0.00;0.00;;;9.00;99.90;;;;;;4972804;28;20305;-60
2023/03/20 03:16:49;;;;;;;0.00;0.00;;;9.00;99.90;;;;;;4972535;28;20167;-60
2023/03/20 03:19:19;;;;;;;0.00;0.00;;;9.00;99.90;;;;;;4974901;28;20291;-60
2023/03/20 03:21:46;;;;;;;0.00;0.00;;;9.00;99.90;;;;;;4973349;28;20172;-60
2023/03/20 03:24:30;;;;;;;0.03;0.03;;;9.00;99.90;;;;;;4972760;28;20180;-59
2023/03/20 03:27:00;;;;;;;0.00;0.00;;;8.90;99.90;;;;;;4973452;28;20681;-59
2023/03/20 03:29:30;;;;;;;0.00;0.00;;;8.90;99.90;;;;;;4973156;28;20191;-59
2023/03/20 03:31:56;;;;;;;0.00;0.00;;;8.90;99.90;;;;;;4973526;28;20184;-60
2023/03/20 03:34:23;;;;;;;0.00;0.00;;;8.90;99.90;;;;;;4972928;28;20654;-60
2023/03/20 03:37:17;;;;;;;0.00;0.00;;;9.00;99.90;;;;;;4973175;28;20176;-60
2023/03/20 03:40:10;;;;;;;0.00;0.00;;;9.00;99.90;;;;;;4972951;28;20211;-60
2023/03/20 03:42:38;;;;;;;0.00;0.00;;;8.90;99.90;;;;;;4972803;28;20276;-59
2023/03/20 03:45:14;;;;;;;0.00;0.00;;;9.00;99.90;;;;;;4991960;28;20175;-60
2023/03/20 03:48:13;;;;;;;0.00;0.00;;;9.00;99.90;;;;;;4982066;28;20184;-60
2023/03/20 03:50:47;;;;;;;0.00;0.00;;;9.00;99.90;;;;;;4972469;28;20255;-59
2023/03/20 03:53:24;;;;;;;0.00;0.00;;;9.00;99.90;;;;;;4972502;28;20271;-60
2023/03/20 03:55:53;;;;;;;0.40;0.38;;;9.00;99.90;;;;;;4979981;28;20183;-60
2023/03/20 03:58:26;;;;;;;0.00;0.00;;;9.00;99.90;;;;;;4989329;28;20183;-60
2023/03/20 04:00:54;;;;;;;0.00;0.00;;;9.00;99.90;;;;;;4972859;28;20227;-60
2023/03/20 04:03:24;;;;;;;0.00;0.00;;;9.00;99.90;;;;;;4972384;28;20206;-60
2023/03/20 04:05:52;;;;;;;0.10;0.10;;;9.00;99.90;;;;;;4972759;28;20188;-61
2023/03/20 04:08:17;;;;;;;0.03;0.03;;;9.00;99.90;;;;;;4972173;28;20188;-60
2023/03/20 04:10:43;;;;;;;0.00;0.00;;;9.00;99.90;;;;;;4972386;28;20717;-60
2023/03/20 04:13:10;;;;;;;0.00;0.00;;;9.00;99.90;;;;;;4971902;28;20187;-60
2023/03/20 04:15:37;;;;;;;0.52;0.20;;;9.00;99.90;;;;;;4987553;28;20193;-60
2023/03/20 04:18:03;;;;;;;0.00;0.00;;;9.00;99.90;;;;;;4973849;28;20220;-60
2023/03/20 04:20:28;;;;;;;0.10;0.10;;;8.90;99.90;;;;;;4967257;28;20212;-60
2023/03/20 04:22:55;;;;;;;0.00;0.00;;;9.00;99.90;;;;;;4988517;28;20568;-60
2023/03/20 04:25:27;;;;;;;0.00;0.00;;;8.90;99.90;;;;;;4984909;28;20258;-60
2023/03/20 04:27:54;;;;;;;0.00;0.00;;;9.00;99.90;;;;;;4988330;28;20181;-60
2023/03/20 04:30:20;;;;;;;0.00;0.00;;;8.90;99.90;;;;;;4972467;28;20168;-60
2023/03/20 04:32:45;;;;;;;0.00;0.00;;;8.90;99.90;;;;;;4971821;28;20674;-62
2023/03/20 04:35:11;;;;;;;0.00;0.00;;;9.00;99.90;;;;;;4972095;28;20195;-61
2023/03/20 04:37:36;;;;;;;0.00;0.00;;;9.00;99.90;;;;;;4971612;28;20204;-60
2023/03/20 04:40:03;;;;;;;0.00;0.00;;;9.00;99.90;;;;;;4971597;28;20294;-60
2023/03/20 04:42:28;;;;;;;0.00;0.00;;;9.00;99.90;;;;;;4971248;28;20180;-62
2023/03/20 04:44:54;;;;;;;0.00;0.00;;;9.00;99.90;;;;;;4975626;28;20534;-58
2023/03/20 04:47:20;;;;;;;0.00;0.00;;;9.00;99.90;;;;;;4971669;28;20194;-62
2023/03/20 04:49:45;;;;;;;0.17;0.17;;;9.00;99.90;;;;;;4971352;28;20191;-60
2023/03/20 04:52:11;;;;;;;0.00;0.00;;;8.90;99.90;;;;;;4971475;28;20172;-59
2023/03/20 04:54:36;;;;;;;0.00;0.00;;;8.90;99.90;;;;;;4968766;28;20637;-60
2023/03/20 04:57:02;;;;;;;0.00;0.00;;;8.90;99.90;;;;;;4963042;28;20202;-62
2023/03/20 04:59:27;;;;;;;0.00;0.00;;;8.90;99.90;;;;;;4971415;28;20216;-60
2023/03/20 05:01:53;;;;;;;0.03;0.03;;;8.90;99.90;;;;;;4971382;28;20184;-59
2023/03/20 05:04:18;;;;;;;0.00;0.00;;;8.90;99.90;;;;;;4971329;28;20187;-59
2023/03/20 05:06:47;;;;;;;0.00;0.00;;;8.90;99.90;;;;;;4971517;28;20187;-61
2023/03/20 05:09:14;;;;;;;0.08;0.08;;;8.90;99.90;;;;;;4939017;28;20183;-60
2023/03/20 05:11:40;;;;;;;0.10;0.10;;;8.90;99.90;;;;;;4967581;28;20180;-60
2023/03/20 05:14:06;;;;;;;0.20;0.20;;;8.90;99.90;;;;;;4971332;28;20187;-60
2023/03/20 05:16:31;;;;;;;0.00;0.00;;;8.90;99.90;;;;;;4971968;28;20515;-60
2023/03/20 05:18:57;;;;;;;0.00;0.00;;;8.90;99.90;;;;;;4971335;28;20235;-60
2023/03/20 05:21:22;;;;;;;0.00;0.00;;;8.90;99.90;;;;;;4971438;28;20226;-60
2023/03/20 05:23:48;;;;;;;0.00;0.00;;;8.90;99.90;;;;;;4971787;28;20172;-60
2023/03/20 05:26:13;;;;;;;0.00;0.00;;;8.90;99.90;;;;;;4971616;28;20188;-60
2023/03/20 05:28:39;;;;;;;0.43;0.43;;;8.90;99.90;;;;;;4971647;28;20255;-60
2023/03/20 05:31:05;;;;;;;0.85;0.85;;;8.90;99.90;;;;;;4971410;28;20184;-59
2023/03/20 05:33:30;;;;;;;0.03;0.03;;;8.90;99.90;;;;;;4971604;28;20192;-60
2023/03/20 05:35:56;;;;;;;0.00;0.00;;;8.90;99.90;;;;;;4971756;28;20523;-60
2023/03/20 05:38:21;;;;;;;0.00;0.00;;;8.90;99.90;;;;;;4971885;28;20183;-60
2023/03/20 05:40:57;;;;;;;0.00;0.00;;;8.90;99.90;;;;;;4970632;28;20625;-60
2023/03/20 05:43:23;;;;;;;0.32;0.32;;;8.90;99.90;;;;;;4977050;28;20745;-59
2023/03/20 05:45:48;;;;;;;0.03;0.03;;;8.90;99.90;;;;;;4991199;28;20302;-60
2023/03/20 05:48:14;;;;;;;0.00;0.00;;;8.90;99.90;;;;;;4991078;28;20597;-59
2023/03/20 05:50:40;;;;;;;0.00;0.00;;;8.90;99.90;;;;;;4991221;28;20175;-60
2023/03/20 05:53:06;;;;;;;0.00;0.00;;;8.90;99.90;;;;;;4990751;28;20205;-59
2023/03/20 05:55:32;;;;;;;0.00;0.00;;;8.90;99.90;;;;;;4990596;28;20512;-60
2023/03/20 05:57:57;;;;;;;0.00;0.00;;;8.90;99.90;;;;;;4989338;28;20314;-60
2023/03/20 06:00:23;;;;;;;0.00;0.00;;;8.90;99.90;;;;;;4990496;28;20228;-60
2023/03/20 06:02:49;;;;;;;0.00;0.00;;;8.90;99.90;;;;;;4990590;28;20187;-59
2023/03/20 06:05:14;;;;;;;0.00;0.00;;;8.90;99.90;;;;;;4991534;28;20183;-60
2023/03/20 06:07:40;;;;;;;0.00;0.00;;;9.00;99.90;;;;;;4994117;28;20178;-59
2023/03/20 06:10:06;;;;;;;0.00;0.00;;;9.00;99.90;;;;;;4992031;28;20255;-60
2023/03/20 06:12:32;;;;;;;0.10;0.10;;;9.00;99.90;;;;;;4974522;28;20179;-60
2023/03/20 06:14:57;;;;;;;0.20;0.20;;;9.00;99.90;;;;;;4974668;28;20188;-60
2023/03/20 06:17:23;;;;;;;0.00;0.00;;;9.10;99.90;;;;;;4974254;28;20255;-60
2023/03/20 06:19:49;;;;;;;0.00;0.00;;;9.10;99.90;;;;;;4974160;28;20216;-59
2023/03/20 06:22:14;;;;;;;0.00;0.00;;;9.20;99.90;;;;;;4962097;28;20185;-60
2023/03/20 06:24:42;;;;;;;0.00;0.00;;;9.20;99.90;;;;;;4955133;28;20168;-60
2023/03/20 06:27:07;;;;;;;0.00;0.00;;;9.20;99.90;;;;;;4954987;28;20245;-59
2023/03/20 06:29:33;;;;;;;0.93;0.52;;;9.30;99.90;;;;;;4955122;28;20201;-59
2023/03/20 06:31:58;;;;;;;0.00;0.00;;;9.40;99.90;;;;;;4955003;28;20180;-60
2023/03/20 06:34:24;;;;;;;0.25;0.22;;;9.50;99.90;;;;;;4954880;28;20512;-60
2023/03/20 06:36:50;;;;;;;0.00;0.00;;;9.60;99.90;;;;;;4954764;28;20708;-60
2023/03/20 06:39:15;;;;;;;0.00;0.00;;;9.60;99.90;;;;;;4954771;28;20310;-60
2023/03/20 06:41:41;;;;;;;0.00;0.00;;;9.70;99.90;;;;;;4954795;28;20177;-60
2023/03/20 06:44:06;;;;;;;0.10;0.10;;;9.80;99.90;;;;;;4977162;28;20187;-60
2023/03/20 06:46:32;;;;;;;0.00;0.00;;;9.90;99.90;;;;;;4993325;28;20179;-59
2023/03/20 06:48:58;;;;;;;0.00;0.00;;;9.90;99.90;;;;;;4993319;28;20176;-60
2023/03/20 06:51:23;;;;;;;0.00;0.00;;;9.90;99.90;;;;;;4993372;28;20229;-59
2023/03/20 06:53:50;;;;;;;0.00;0.00;;;9.80;99.90;;;;;;4993186;28;20222;-60
2023/03/20 06:56:15;;;;;;;0.00;0.00;;;9.80;99.90;;;;;;4975768;28;21179;-60
2023/03/20 06:58:41;;;;;;;0.00;0.00;;;9.80;99.90;;;;;;4993225;28;20179;-60
2023/03/20 07:01:16;;;;;;;0.10;0.10;;;9.80;99.90;;;;;;4993196;28;20190;-59
2023/03/20 07:03:42;;;;;;;0.10;0.10;;;9.70;99.90;;;;;;4993245;28;20186;-60
2023/03/20 07:06:08;;;;;;;0.00;0.00;;;9.80;99.90;;;;;;4993056;28;20176;-60
2023/03/20 07:08:34;;;;;;;0.00;0.00;;;9.70;99.90;;;;;;4993214;28;20186;-60
2023/03/20 07:11:00;;;;;;;0.13;0.13;;;9.70;99.90;;;;;;4983754;28;20187;-60
2023/03/20 07:13:27;;;;;;;0.00;0.00;;;9.70;99.90;;;;;;4973606;28;20192;-60
2023/03/20 07:15:53;;;;;;;1.25;1.25;;;9.70;99.90;;;;;;4973421;28;20203;-60
2023/03/20 07:18:19;;;;;;;0.00;0.00;;;9.80;99.90;;;;;;4972306;28;20291;-60
2023/03/20 07:20:45;;;;;;;0.20;0.20;;;9.80;99.90;;;;;;4973109;28;20314;-59
2023/03/20 07:23:10;;;;;;;0.10;0.10;;;9.80;99.90;;;;;;4953870;28;20264;-59
2023/03/20 07:25:37;;;;;;;0.00;0.00;;;9.80;99.90;;;;;;4954130;28;20196;-60
2023/03/20 07:28:04;;;;;;;0.00;0.00;;;9.80;99.90;;;;;;4953848;28;20263;-59
2023/03/20 07:30:31;;;;;;;0.20;0.20;;;9.90;99.90;;;;;;4953988;28;20177;-60
2023/03/20 07:32:56;;;;;;;0.08;0.08;;;9.90;99.90;;;;;;4954111;28;20187;-59
2023/03/20 07:35:23;;;;;;;0.15;0.15;;;10.00;99.90;;;;;;4954324;28;20185;-60
2023/03/20 07:37:48;;;;;;;0.00;0.00;;;10.00;99.90;;;;;;4954079;28;20239;-59
2023/03/20 07:40:14;;;;;;;0.00;0.00;;;10.00;99.90;;;;;;4953985;28;20691;-59
2023/03/20 07:42:40;;;;;;;0.10;0.10;;;10.00;99.90;;;;;;4954069;28;20199;-59
2023/03/20 07:45:08;;;;;;;0.05;0.05;;;10.00;99.90;;;;;;4992351;28;20270;-59
2023/03/20 07:47:33;;;;;;;0.00;0.00;;;10.00;99.90;;;;;;4992778;28;20638;-60
2023/03/20 07:49:59;;;;;;;0.10;0.10;;;10.00;99.90;;;;;;4992702;28;20722;-59
2023/03/20 07:52:25;;;;;;;0.10;0.10;;;9.90;99.90;;;;;;4992536;28;20185;-59
2023/03/20 07:54:50;;;;;;;0.00;0.00;;;9.80;99.90;;;;;;4992492;28;20202;-59
2023/03/20 07:57:17;;;;;;;0.08;0.08;;;9.80;99.90;;;;;;4992530;28;20526;-59
2023/03/20 07:59:42;;;;;;;0.00;0.00;;;9.70;99.90;;;;;;4992463;28;20219;-59
2023/03/20 08:02:14;;;;;;;0.00;0.00;;;9.70;99.90;;;;;;4992357;28;20182;-60
2023/03/20 08:04:40;;;;;;;0.38;0.28;;;9.70;99.90;;;;;;4992520;28;20175;-59
2023/03/20 08:07:06;;;;;;;0.22;0.22;;;9.70;99.90;;;;;;4992256;28;20582;-59
2023/03/20 08:09:31;;;;;;;0.00;0.00;;;9.70;99.90;;;;;;4992292;28;20180;-60
2023/03/20 08:11:57;;;;;;;0.00;0.00;;;9.70;99.90;;;;;;4975234;28;20188;-59
2023/03/20 08:14:22;;;;;;;0.00;0.00;;;9.80;99.90;;;;;;4972914;28;20214;-60
2023/03/20 08:16:48;;;;;;;0.00;0.00;;;10.00;99.90;;;;;;4972673;28;20194;-60
2023/03/20 08:19:14;;;;;;;0.00;0.00;;;10.10;99.90;;;;;;4972381;28;20583;-59
2023/03/20 08:21:39;;;;;;;0.00;0.00;;;10.30;99.90;;;;;;4965198;28;20204;-60
2023/03/20 08:24:05;;;;;;;0.00;0.00;;;10.40;99.90;;;;;;4953264;28;20261;-60
2023/03/20 08:26:31;;;;;;;0.00;0.00;;;10.50;99.90;;;;;;4953321;28;20185;-60
2023/03/20 08:28:58;;;;;;;0.20;0.20;;;10.60;99.90;;;;;;4953162;28;20180;-60
2023/03/20 08:31:23;;;;;;;0.00;0.00;;;10.70;99.90;;;;;;4953258;28;20184;-60
2023/03/20 08:33:49;;;;;;;0.00;0.00;;;10.80;99.90;;;;;;4953218;28;20176;-60
2023/03/20 08:36:15;;;;;;;0.00;0.00;;;11.00;99.90;;;;;;4953154;28;20702;-60
2023/03/20 08:38:42;;;;;;;0.00;0.00;;;11.00;99.90;;;;;;4953274;28;20184;-59
2023/03/20 08:41:07;;;;;;;0.10;0.10;;;11.10;99.90;;;;;;4953041;28;20219;-60
2023/03/20 08:43:33;;;;;;;0.00;0.00;;;11.00;99.90;;;;;;4966565;28;20675;-60
2023/03/20 08:45:58;;;;;;;0.00;0.00;;;11.00;99.90;;;;;;4991740;28;20183;-60
2023/03/20 08:48:25;;;;;;;0.00;0.00;;;11.00;99.90;;;;;;4991700;28;20229;-60
2023/03/20 08:50:50;;;;;;;0.00;0.00;;;11.00;99.90;;;;;;4991637;28;20179;-59
2023/03/20 08:53:16;;;;;;;0.00;0.00;;;10.90;99.90;;;;;;4991639;28;20871;-59
2023/03/20 08:55:47;;;;;;;0.00;0.00;;;10.90;99.90;;;;;;4991761;28;20183;-59
2023/03/20 08:58:13;;;;;;;0.00;0.00;;;11.00;99.90;;;;;;4991472;28;20183;-60
2023/03/20 09:00:38;;;;;;;0.00;0.00;;;11.00;99.90;;;;;;4991622;28;20226;-60
2023/03/20 09:03:04;;;;;;;0.00;0.00;;;10.90;99.90;;;;;;4991665;28;20168;-59
2023/03/20 09:05:30;;;;;;;0.00;0.00;;;10.90;99.90;;;;;;4991588;28;20768;-60
2023/03/20 09:07:55;;;;;;;0.00;0.00;;;10.80;99.90;;;;;;4991645;28;20187;-59
2023/03/20 09:10:21;;;;;;;0.00;0.00;;;10.80;99.90;;;;;;4987371;28;20184;-59
2023/03/20 09:12:46;;;;;;;0.00;0.00;;;10.80;99.90;;;;;;4972263;28;20183;-59
2023/03/20 09:15:12;;;;;;;0.00;0.00;;;10.90;99.90;;;;;;4972116;28;20184;-60
2023/03/20 09:17:37;;;;;;;0.08;0.08;;;11.00;99.90;;;;;;4972127;28;20238;-61
2023/03/20 09:20:04;;;;;;;0.00;0.00;;;11.20;99.90;;;;;;4972017;28;20652;-60
2023/03/20 09:22:29;;;;;;;0.52;0.52;;;11.30;99.90;;;;;;4957934;28;20184;-60
2023/03/20 09:24:55;;;;;;;0.00;0.00;;;11.30;99.90;;;;;;4952912;28;20188;-60
2023/03/20 09:27:20;;;;;;;0.00;0.00;;;11.40;99.90;;;;;;4952911;28;20205;-60
2023/03/20 09:29:46;;;;;;;0.22;0.22;;;11.50;99.90;;;;;;4952852;28;20195;-61
2023/03/20 09:32:13;;;;;;;0.00;0.00;;;11.50;99.90;;;;;;4952688;28;20675;-59
2023/03/20 09:34:39;;;;;;;0.28;0.28;;;11.60;99.90;;;;;;4952839;28;20240;-59
2023/03/20 09:37:05;;;;;;;0.00;0.00;;;11.70;99.90;;;;;;4952802;28;20534;-59
2023/03/20 09:39:31;;;;;;;0.00;0.00;;;11.70;99.90;;;;;;4952648;28;20746;-60
2023/03/20 09:42:07;;;;;;;0.00;0.00;;;11.70;99.90;;;;;;4956291;28;20189;-59
2023/03/20 09:45:00;;;;;;;0.00;0.00;;;11.80;99.90;;;;;;4985848;28;20183;-59
2023/03/20 09:47:45;;;;;;;0.00;0.00;;;11.80;99.90;;;;;;4995286;28;20665;-59
2023/03/20 09:50:43;;;;;;;0.00;0.00;;;11.90;99.90;;;;;;4994897;28;20234;-59
2023/03/20 09:53:53;;;;;;;0.00;0.00;;;11.80;99.90;;;;;;4994119;28;20190;-60
2023/03/20 09:56:25;;;;;;;0.00;0.00;;;11.70;99.90;;;;;;4991092;28;20243;-59
2023/03/20 09:58:54;;;;;;;0.00;0.00;;;11.50;99.90;;;;;;4994972;28;20639;-59
2023/03/20 10:01:23;;;;;;;0.00;0.00;;;11.60;99.90;;;;;;4994873;28;20179;-59
2023/03/20 10:03:51;;;;;;;0.05;0.03;;;11.60;99.90;;;;;;4994811;28;20257;-59
2023/03/20 10:06:17;;;;;;;0.00;0.00;;;11.80;99.90;;;;;;4994671;28;20179;-59
2023/03/20 10:08:44;;;;;;;0.00;0.00;;;11.80;99.90;;;;;;4994832;28;20258;-59
2023/03/20 10:11:46;;;;;;;0.00;0.00;;;11.90;99.90;;;;;;4983922;28;20530;-59
2023/03/20 10:14:36;;;;;;;0.00;0.00;;;11.90;99.90;;;;;;4975041;28;20190;-59
2023/03/20 10:17:25;;;;;;;0.00;0.00;;;11.80;99.90;;;;;;4974872;28;20191;-59
2023/03/20 10:19:57;;;;;;;0.00;0.00;;;11.80;99.90;;;;;;4974840;28;20573;-59
2023/03/20 10:22:44;;;;;;;0.00;0.00;;;11.90;99.90;;;;;;4974974;28;20631;-59
2023/03/20 10:25:23;;;;;;;0.38;0.13;;;12.00;99.90;;;;;;4974808;28;20183;-59
2023/03/20 10:27:51;;;;;;;0.00;0.00;;;12.20;99.90;;;;;;4974852;28;20187;-59
2023/03/20 10:30:50;;;;;;;0.00;0.00;;;12.20;99.90;;;;;;4974915;28;20292;-59
2023/03/20 10:33:49;;;;;;;0.20;0.20;;;12.40;99.90;;;;;;4974916;28;20180;-59
2023/03/20 10:36:34;;;;;;;0.00;0.00;;;12.40;99.90;;;;;;4949991;28;20204;-60
2023/03/20 10:39:35;;;;;;;0.00;0.00;;;12.50;99.90;;;;;;4974599;28;20176;-59
2023/03/20 10:42:05;;;;;;;0.20;0.20;;;12.70;99.90;;;;;;4974651;28;20180;-60
2023/03/20 10:44:37;;;;;;;0.00;0.00;;;13.10;99.90;;;;;;4989182;28;20182;-59
2023/03/20 10:47:06;;;;;;;0.00;0.00;;;13.50;99.90;;;;;;4994045;28;20176;-59
2023/03/20 10:49:34;;;;;;;0.00;0.00;;;14.00;99.90;;;;;;4993984;28;20595;-60
2023/03/20 10:52:11;;;;;;;0.00;0.00;;;14.40;99.90;;;;;;4992787;28;20186;-60
2023/03/20 10:54:44;;;;;;;0.00;0.00;;;14.70;99.90;;;;;;4994080;28;20184;-60
2023/03/20 10:57:20;;;;;;;0.00;0.00;;;15.00;99.90;;;;;;4993730;28;20210;-60
2023/03/20 10:59:48;;;;;;;0.00;0.00;;;15.20;99.90;;;;;;4993802;28;20629;-60
2023/03/20 11:02:16;;;;;;;0.00;0.00;;;15.50;99.90;;;;;;4993763;28;20203;-60
2023/03/20 11:04:42;;;;;;;0.00;0.00;;;16.00;99.90;;;;;;4993833;28;20187;-60
2023/03/20 11:07:33;;;;;;;0.00;0.00;;;16.30;99.20;;;;;;4993776;28;20179;-60
2023/03/20 11:10:06;;;;;;;0.00;0.00;;;16.70;98.80;;;;;;4992403;28;20530;-60
2023/03/20 11:12:46;;;;;;;0.00;0.00;;;16.80;96.70;;;;;;4974203;28;20171;-60
2023/03/20 11:15:28;;;;;;;0.00;0.00;;;16.40;95.80;;;;;;4973957;28;20227;-60
2023/03/20 11:18:03;;;;;;;0.00;0.00;;;16.40;96.40;;;;;;4973788;28;20278;-60
2023/03/20 11:20:44;;;;;;;0.00;0.00;;;16.80;97.20;;;;;;4973927;28;20219;-60
2023/03/20 11:23:18;;;;;;;0.00;0.00;;;17.40;96.40;;;;;;4973770;28;20184;-60
2023/03/20 11:26:06;;;;;;;0.00;0.00;;;17.60;95.00;;;;;;4973944;28;20176;-60
2023/03/20 11:28:38;;;;;;;0.00;0.00;;;17.40;94.40;;;;;;4973853;28;20175;-60
2023/03/20 11:31:11;;;;;;;0.00;0.00;;;16.80;94.10;;;;;;4973780;28;20168;-60
2023/03/20 11:33:41;;;;;;;0.00;0.00;;;16.50;93.40;;;;;;4956468;28;20535;-60
2023/03/20 11:36:25;;;;;;;0.00;0.00;;;16.10;93.50;;;;;;4973718;28;20231;-60
2023/03/20 11:38:52;;;;;;;0.00;0.00;;;15.80;94.50;;;;;;4956284;28;20541;-60
2023/03/20 11:41:24;;;;;;;0.00;0.00;;;15.50;95.30;;;;;;4973537;28;20176;-60
2023/03/20 11:43:50;;;;;;;0.00;0.00;;;15.70;95.90;;;;;;4973534;28;20174;-60
2023/03/20 11:46:15;;;;;;;0.00;0.00;;;16.00;95.10;;;;;;4973501;28;20176;-60
2023/03/20 11:48:44;;;;;;;0.00;0.00;;;16.10;94.80;;;;;;4973559;28;20604;-60
2023/03/20 11:51:17;;;;;;;0.00;0.00;;;16.20;95.00;;;;;;4973384;28;20240;-60
2023/03/20 11:53:46;;;;;;;0.00;0.00;;;16.00;94.20;;;;;;4973602;28;20259;-58
2023/03/20 11:56:19;;;;;;;0.05;0.05;;;15.80;94.70;;;;;;4973190;28;20194;-58
2023/03/20 11:58:50;;;;;;;0.00;0.00;;;15.80;95.40;;;;;;4973453;28;20184;-58
2023/03/20 12:01:16;;;;;;;0.00;0.00;;;15.80;94.00;;;;;;4973221;28;20220;-58
2023/03/20 12:04:05;;;;;;;0.00;0.00;;;15.70;93.80;;;;;;4973043;28;20234;-58
2023/03/20 12:06:52;;;;;;;0.00;0.00;;;15.40;92.90;;;;;;4973193;28;20172;-58
2023/03/20 12:09:33;;;;;;;0.00;0.00;;;15.30;93.80;;;;;;4973312;28;20184;-58
2023/03/20 12:12:09;;;;;;;0.00;0.00;;;15.10;93.50;;;;;;4973009;28;20592;-58
2023/03/20 12:15:04;;;;;;;0.00;0.00;;;15.10;93.50;;;;;;4973183;28;20188;-58
2023/03/20 12:17:48;;;;;;;0.00;0.00;;;14.90;93.10;;;;;;4972780;28;20354;-58
2023/03/20 12:20:21;;;;;;;0.00;0.00;;;14.60;92.10;;;;;;4953632;28;20765;-58
2023/03/20 12:22:56;;;;;;;0.00;0.00;;;14.60;92.70;;;;;;4936483;28;20181;-58
2023/03/20 12:25:50;;;;;;;0.00;0.00;;;14.60;92.80;;;;;;4953615;28;20544;-58
2023/03/20 12:28:33;;;;;;;0.10;0.10;;;14.50;93.10;;;;;;4953601;28;20208;-58
2023/03/20 12:31:16;;;;;;;0.00;0.00;;;14.50;93.60;;;;;;4953642;28;20200;-58
2023/03/20 12:33:46;;;;;;;0.00;0.00;;;14.50;93.50;;;;;;4953527;28;20640;-58
2023/03/20 12:36:16;;;;;;;0.00;0.00;;;14.80;94.30;;;;;;4953337;28;20536;-58
2023/03/20 12:38:43;;;;;;;0.00;0.00;;;15.00;93.50;;;;;;4953574;28;20350;-58
2023/03/20 12:41:18;;;;;;;0.00;0.00;;;15.10;93.00;;;;;;4953186;28;20231;-60
2023/03/20 12:44:03;;;;;;;0.00;0.00;;;15.10;92.30;;;;;;4969647;28;20198;-58
2023/03/20 12:46:53;;;;;;;0.00;0.00;;;15.20;92.40;;;;;;4991928;28;20592;-58
2023/03/20 12:49:37;;;;;;;0.05;0.05;;;15.40;92.60;;;;;;4991938;28;20269;-58
2023/03/20 12:52:08;;;;;;;0.00;0.00;;;15.60;92.80;;;;;;4991881;28;20175;-60
2023/03/20 12:55:15;;;;;;;0.00;0.00;;;15.80;92.80;;;;;;4991925;28;20183;-60
2023/03/20 12:58:14;;;;;;;0.00;0.00;;;16.00;92.00;;;;;;4991976;28;20242;-60
2023/03/20 13:01:07;;;;;;;0.00;0.00;;;16.20;91.20;;;;;;4991908;28;20223;-59
2023/03/20 13:04:10;;;;;;;0.00;0.00;;;16.10;90.60;;;;;;4991907;28;20181;-59
2023/03/20 13:06:55;;;;;;;0.00;0.00;;;16.00;90.20;;;;;;4991945;28;20210;-59
2023/03/20 13:09:46;;;;;;;0.00;0.00;;;15.90;90.80;;;;;;4991810;28;20183;-60
2023/03/20 13:12:33;;;;;;;0.00;0.00;;;15.80;90.90;;;;;;4972638;28;20250;-59
2023/03/20 13:15:17;;;;;;;0.00;0.00;;;15.80;90.90;;;;;;4973016;28;20726;-59
2023/03/20 13:18:09;;;;;;;0.00;0.00;;;15.60;91.30;;;;;;4976041;28;20620;-60